sensor_id;sensor_type;location;lat;lon;timestamp;pressure;altitude;pressure_sealevel;temperature;humidity
44079;BME280;29744;49.078;12.878;2023-02-12T00:04:56;98126.00;;;14.88;30.95
44079;BME280;29744;49.078;12.878;2023-02-12T00:09:56;98134.69;;;14.85;31.55
44079;BME280;29744;49.078;12.878;2023-02-12T00:14:57;98129.03;;;14.81;31.44
44079;BME280;29744;49.078;12.878;2023-02-12T00:20:00;98130.69;;;14.77;31.45
44079;BME280;29744;49.078;12.878;2023-02-12T00:25:00;98134.78;;;14.74;31.46
44079;BME280;29744;49.078;12.878;2023-02-12T00:30:01;98141.53;;;14.72;31.61
44079;BME280;29744;49.078;12.878;2023-02-12T00:35:02;98140.22;;;14.69;31.18
44079;BME280;29744;49.078;12.878;2023-02-12T00:40:03;98137.81;;;14.68;31.47
44079;BME280;29744;49.078;12.878;2023-02-12T00:45:04;98141.88;;;14.65;31.55
44079;BME280;29744;49.078;12.878;2023-02-12T00:50:05;98147.31;;;14.60;31.64
44079;BME280;29744;49.078;12.878;2023-02-12T00:55:05;98156.78;;;14.58;31.82
44079;BME280;29744;49.078;12.878;2023-02-12T01:00:06;98156.25;;;14.56;31.30
44079;BME280;29744;49.078;12.878;2023-02-12T01:05:07;98154.94;;;14.53;31.92
44079;BME280;29744;49.078;12.878;2023-02-12T01:10:08;98162.78;;;14.49;31.87
44079;BME280;29744;49.078;12.878;2023-02-12T01:15:08;98180.06;;;14.48;31.71
44079;BME280;29744;49.078;12.878;2023-02-12T01:20:14;98179.81;;;14.45;31.63
44079;BME280;29744;49.078;12.878;2023-02-12T01:25:16;98183.69;;;14.34;31.58
44079;BME280;29744;49.078;12.878;2023-02-12T01:30:17;98177.72;;;14.37;31.51
44079;BME280;29744;49.078;12.878;2023-02-12T01:35:21;98167.22;;;14.35;31.69
44079;BME280;29744;49.078;12.878;2023-02-12T01:40:21;98177.47;;;14.33;31.87
44079;BME280;29744;49.078;12.878;2023-02-12T01:50:22;98158.34;;;14.30;31.61
44079;BME280;29744;49.078;12.878;2023-02-12T01:55:22;98158.91;;;14.27;32.20
44079;BME280;29744;49.078;12.878;2023-02-12T02:00:24;98150.28;;;14.25;31.81
44079;BME280;29744;49.078;12.878;2023-02-12T02:06:23;98168.09;;;14.21;32.33
44079;BME280;29744;49.078;12.878;2023-02-12T02:10:57;98169.97;;;14.20;32.11
44079;BME280;29744;49.078;12.878;2023-02-12T02:15:59;98172.94;;;14.18;32.29
44079;BME280;29744;49.078;12.878;2023-02-12T02:37:18;98164.09;;;14.08;32.23
44079;BME280;29744;49.078;12.878;2023-02-12T02:42:28;98156.28;;;14.06;32.07
44079;BME280;29744;49.078;12.878;2023-02-12T02:47:38;98151.97;;;14.05;32.32
44079;BME280;29744;49.078;12.878;2023-02-12T02:53:00;98171.16;;;14.04;32.29
44079;BME280;29744;49.078;12.878;2023-02-12T02:58:08;98173.31;;;14.02;32.07
44079;BME280;29744;49.078;12.878;2023-02-12T03:03:22;98167.38;;;14.00;32.52
44079;BME280;29744;49.078;12.878;2023-02-12T03:08:30;98159.56;;;13.98;32.08
44079;BME280;29744;49.078;12.878;2023-02-12T03:13:42;98167.13;;;13.96;32.82
44079;BME280;29744;49.078;12.878;2023-02-12T03:18:51;98166.59;;;13.94;32.52
44079;BME280;29744;49.078;12.878;2023-02-12T03:24:02;98170.38;;;13.93;32.56
44079;BME280;29744;49.078;12.878;2023-02-12T03:29:04;98176.06;;;13.92;32.43
44079;BME280;29744;49.078;12.878;2023-02-12T03:39:20;98180.41;;;13.88;32.70
44079;BME280;29744;49.078;12.878;2023-02-12T03:49:58;98189.03;;;13.84;32.58
44079;BME280;29744;49.078;12.878;2023-02-12T03:55:00;98197.13;;;13.84;32.51
44079;BME280;29744;49.078;12.878;2023-02-12T04:00:08;98202.50;;;13.90;32.12
44079;BME280;29744;49.078;12.878;2023-02-12T04:05:22;98199.53;;;13.91;32.45
44079;BME280;29744;49.078;12.878;2023-02-12T04:10:31;98213.53;;;13.93;32.17
44079;BME280;29744;49.078;12.878;2023-02-12T04:26:21;98223.00;;;13.91;32.25
44079;BME280;29744;49.078;12.878;2023-02-12T04:31:29;98221.09;;;13.91;32.38
44079;BME280;29744;49.078;12.878;2023-02-12T04:36:35;98223.81;;;13.91;32.17
44079;BME280;29744;49.078;12.878;2023-02-12T04:41:39;98223.00;;;13.91;32.17
44079;BME280;29744;49.078;12.878;2023-02-12T04:46:39;98224.34;;;13.93;32.40
44079;BME280;29744;49.078;12.878;2023-02-12T04:51:39;98226.19;;;13.98;32.25
44079;BME280;29744;49.078;12.878;2023-02-12T04:56:40;98225.38;;;14.02;32.55
44079;BME280;29744;49.078;12.878;2023-02-12T05:01:41;98220.47;;;14.14;32.20
44079;BME280;29744;49.078;12.878;2023-02-12T05:06:42;98226.63;;;14.25;32.04
44079;BME280;29744;49.078;12.878;2023-02-12T05:11:43;98238.72;;;14.38;31.72
44079;BME280;29744;49.078;12.878;2023-02-12T05:16:43;98242.41;;;14.52;32.35
44079;BME280;29744;49.078;12.878;2023-02-12T05:21:44;98241.50;;;14.67;31.97
44079;BME280;29744;49.078;12.878;2023-02-12T05:26:44;98239.50;;;14.82;31.74
44079;BME280;29744;49.078;12.878;2023-02-12T05:31:44;98242.59;;;15.00;31.58
44079;BME280;29744;49.078;12.878;2023-02-12T05:36:45;98247.91;;;15.15;31.79
44079;BME280;29744;49.078;12.878;2023-02-12T05:41:45;98251.81;;;15.33;31.79
44079;BME280;29744;49.078;12.878;2023-02-12T05:46:45;98257.06;;;15.48;31.81
44079;BME280;29744;49.078;12.878;2023-02-12T05:51:46;98254.72;;;15.65;31.33
44079;BME280;29744;49.078;12.878;2023-02-12T05:56:46;98265.41;;;15.81;31.38
44079;BME280;29744;49.078;12.878;2023-02-12T06:01:49;98267.66;;;15.97;30.96
44079;BME280;29744;49.078;12.878;2023-02-12T06:06:51;98283.72;;;16.13;31.08
44079;BME280;29744;49.078;12.878;2023-02-12T06:11:51;98287.31;;;16.27;31.18
44079;BME280;29744;49.078;12.878;2023-02-12T06:16:51;98285.53;;;16.41;31.18
44079;BME280;29744;49.078;12.878;2023-02-12T06:21:52;98288.63;;;16.53;30.86
44079;BME280;29744;49.078;12.878;2023-02-12T06:26:52;98277.09;;;16.66;30.70
44079;BME280;29744;49.078;12.878;2023-02-12T06:31:53;98293.22;;;16.77;30.70
44079;BME280;29744;49.078;12.878;2023-02-12T06:36:53;98302.28;;;16.86;30.75
44079;BME280;29744;49.078;12.878;2023-02-12T06:41:53;98309.75;;;16.94;30.75
44079;BME280;29744;49.078;12.878;2023-02-12T06:46:53;98324.84;;;17.00;30.19
44079;BME280;29744;49.078;12.878;2023-02-12T06:51:54;98323.94;;;17.04;30.63
44079;BME280;29744;49.078;12.878;2023-02-12T06:56:54;98323.66;;;17.06;30.62
44079;BME280;29744;49.078;12.878;2023-02-12T07:01:55;98326.06;;;17.08;30.54
44079;BME280;29744;49.078;12.878;2023-02-12T07:06:55;98333.09;;;17.09;30.13
44079;BME280;29744;49.078;12.878;2023-02-12T07:11:57;98326.88;;;17.08;29.87
44079;BME280;29744;49.078;12.878;2023-02-12T07:16:58;98333.41;;;17.07;30.35
44079;BME280;29744;49.078;12.878;2023-02-12T07:21:58;98330.69;;;17.07;30.27
44079;BME280;29744;49.078;12.878;2023-02-12T07:26:58;98333.41;;;17.07;30.18
44079;BME280;29744;49.078;12.878;2023-02-12T07:32:00;98335.00;;;17.08;30.39
44079;BME280;29744;49.078;12.878;2023-02-12T07:37:00;98328.50;;;17.09;30.09
44079;BME280;29744;49.078;12.878;2023-02-12T07:42:00;98330.91;;;17.11;30.23
44079;BME280;29744;49.078;12.878;2023-02-12T07:47:01;98333.31;;;17.12;29.87
44079;BME280;29744;49.078;12.878;2023-02-12T07:52:02;98339.25;;;17.14;30.34
44079;BME280;29744;49.078;12.878;2023-02-12T07:57:03;98346.59;;;17.14;30.17
44079;BME280;29744;49.078;12.878;2023-02-12T08:02:03;98348.50;;;17.13;30.09
44079;BME280;29744;49.078;12.878;2023-02-12T08:07:03;98345.28;;;17.11;30.17
44079;BME280;29744;49.078;12.878;2023-02-12T08:12:04;98342.56;;;17.11;30.14
44079;BME280;29744;49.078;12.878;2023-02-12T08:17:04;98348.56;;;17.08;30.04
44079;BME280;29744;49.078;12.878;2023-02-12T08:22:04;98356.19;;;17.06;30.27
44079;BME280;29744;49.078;12.878;2023-02-12T08:27:05;98354.06;;;17.03;29.92
44079;BME280;29744;49.078;12.878;2023-02-12T08:32:05;98345.41;;;17.01;30.17
44079;BME280;29744;49.078;12.878;2023-02-12T08:37:09;98361.16;;;16.99;30.19
44079;BME280;29744;49.078;12.878;2023-02-12T08:42:09;98351.72;;;16.96;30.25
44079;BME280;29744;49.078;12.878;2023-02-12T08:47:10;98348.50;;;16.94;30.47
44079;BME280;29744;49.078;12.878;2023-02-12T08:52:10;98351.50;;;16.93;30.32
44079;BME280;29744;49.078;12.878;2023-02-12T08:57:10;98358.81;;;16.92;30.33
44079;BME280;29744;49.078;12.878;2023-02-12T09:02:10;98361.03;;;16.90;30.61
44079;BME280;29744;49.078;12.878;2023-02-12T09:07:11;98350.78;;;16.87;30.42
44079;BME280;29744;49.078;12.878;2023-02-12T09:12:11;98357.56;;;16.85;30.55
44079;BME280;29744;49.078;12.878;2023-02-12T09:17:11;98360.56;;;16.83;30.63
44079;BME280;29744;49.078;12.878;2023-02-12T09:22:12;98360.06;;;16.81;30.36
44079;BME280;29744;49.078;12.878;2023-02-12T09:27:12;98365.25;;;16.78;30.32
44079;BME280;29744;49.078;12.878;2023-02-12T09:32:12;98371.25;;;16.75;30.30
44079;BME280;29744;49.078;12.878;2023-02-12T09:37:13;98373.75;;;16.71;30.31
44079;BME280;29744;49.078;12.878;2023-02-12T09:42:30;98363.78;;;16.66;30.49
44079;BME280;29744;49.078;12.878;2023-02-12T09:47:44;98371.97;;;16.61;30.12
44079;BME280;29744;49.078;12.878;2023-02-12T09:52:48;98380.69;;;16.58;30.71
44079;BME280;29744;49.078;12.878;2023-02-12T09:57:49;98378.00;;;16.53;30.27
44079;BME280;29744;49.078;12.878;2023-02-12T10:02:52;98381.28;;;16.50;30.41
44079;BME280;29744;49.078;12.878;2023-02-12T10:13:19;98387.63;;;16.40;30.87
44079;BME280;29744;49.078;12.878;2023-02-12T10:18:33;98389.28;;;16.36;30.56
44079;BME280;29744;49.078;12.878;2023-02-12T10:28:50;98382.59;;;16.29;30.53
44079;BME280;29744;49.078;12.878;2023-02-12T10:33:50;98376.44;;;16.23;30.59
44079;BME280;29744;49.078;12.878;2023-02-12T10:39:03;98376.19;;;16.20;30.35
44079;BME280;29744;49.078;12.878;2023-02-12T10:44:09;98384.91;;;16.17;30.69
44079;BME280;29744;49.078;12.878;2023-02-12T10:49:14;98375.22;;;16.10;30.77
44079;BME280;29744;49.078;12.878;2023-02-12T10:59:30;98374.75;;;16.03;30.60
44079;BME280;29744;49.078;12.878;2023-02-12T11:04:32;98372.63;;;16.00;31.01
44079;BME280;29744;49.078;12.878;2023-02-12T11:09:38;98368.06;;;15.96;31.09
44079;BME280;29744;49.078;12.878;2023-02-12T11:14:51;98362.41;;;15.92;30.79
44079;BME280;29744;49.078;12.878;2023-02-12T11:20:22;98356.53;;;15.85;31.03
44079;BME280;29744;49.078;12.878;2023-02-12T11:25:26;98347.59;;;15.85;30.86
44079;BME280;29744;49.078;12.878;2023-02-12T11:30:28;98355.50;;;15.81;30.77
44079;BME280;29744;49.078;12.878;2023-02-12T11:35:28;98357.13;;;15.77;31.28
44079;BME280;29744;49.078;12.878;2023-02-12T11:40:34;98350.66;;;15.73;30.75
44079;BME280;29744;49.078;12.878;2023-02-12T11:45:42;98349.63;;;15.69;30.77
44079;BME280;29744;49.078;12.878;2023-02-12T11:50:49;98352.38;;;15.64;30.90
44079;BME280;29744;49.078;12.878;2023-02-12T11:55:57;98355.13;;;15.59;31.20
44079;BME280;29744;49.078;12.878;2023-02-12T12:06:13;98348.94;;;15.53;31.19
44079;BME280;29744;49.078;12.878;2023-02-12T12:11:23;98349.81;;;15.49;31.51
44079;BME280;29744;49.078;12.878;2023-02-12T12:16:47;98344.16;;;15.45;31.11
44079;BME280;29744;49.078;12.878;2023-02-12T12:22:22;98349.31;;;15.41;31.10
44079;BME280;29744;49.078;12.878;2023-02-12T12:27:40;98349.88;;;15.38;31.30
44079;BME280;29744;49.078;12.878;2023-02-12T12:33:04;98348.28;;;15.37;31.74
44079;BME280;29744;49.078;12.878;2023-02-12T12:38:36;98345.59;;;15.32;31.68
44079;BME280;29744;49.078;12.878;2023-02-12T12:48:54;98338.88;;;15.30;31.56
44079;BME280;29744;49.078;12.878;2023-02-12T12:54:07;98336.72;;;15.27;31.58
44079;BME280;29744;49.078;12.878;2023-02-12T13:15:47;98320.63;;;15.11;31.88
44079;BME280;29744;49.078;12.878;2023-02-12T13:21:19;98321.72;;;15.10;31.62
44079;BME280;29744;49.078;12.878;2023-02-12T13:26:52;98318.78;;;15.07;31.43
44079;BME280;29744;49.078;12.878;2023-02-12T13:37:21;98316.63;;;15.04;32.07
44079;BME280;29744;49.078;12.878;2023-02-12T13:42:42;98314.47;;;15.01;31.69
44079;BME280;29744;49.078;12.878;2023-02-12T13:48:22;98307.72;;;14.98;31.82
44079;BME280;29744;49.078;12.878;2023-02-12T13:53:45;98304.78;;;14.95;31.94
44079;BME280;29744;49.078;12.878;2023-02-12T13:58:52;98306.16;;;14.92;31.60
44079;BME280;29744;49.078;12.878;2023-02-12T14:03:53;98304.53;;;14.91;32.09
44079;BME280;29744;49.078;12.878;2023-02-12T14:09:09;98301.59;;;14.88;32.05
44079;BME280;29744;49.078;12.878;2023-02-12T14:14:09;98313.19;;;14.88;31.92
44079;BME280;29744;49.078;12.878;2023-02-12T14:19:52;98309.97;;;14.86;31.79
44079;BME280;29744;49.078;12.878;2023-02-12T14:24:58;98309.69;;;14.88;32.04
44079;BME280;29744;49.078;12.878;2023-02-12T14:45:35;98300.94;;;15.01;32.14
44079;BME280;29744;49.078;12.878;2023-02-12T14:50:38;98299.06;;;15.06;31.85
44079;BME280;29744;49.078;12.878;2023-02-12T14:55:44;98296.31;;;15.11;32.14
44079;BME280;29744;49.078;12.878;2023-02-12T15:00:47;98301.69;;;15.17;32.22
44079;BME280;29744;49.078;12.878;2023-02-12T15:16:32;98289.66;;;15.33;31.86
44079;BME280;29744;49.078;12.878;2023-02-12T15:21:34;98291.22;;;15.39;32.12
44079;BME280;29744;49.078;12.878;2023-02-12T15:26:39;98283.88;;;15.44;31.85
44079;BME280;29744;49.078;12.878;2023-02-12T15:31:40;98295.72;;;15.49;31.48
44079;BME280;29744;49.078;12.878;2023-02-12T15:36:44;98291.06;;;15.54;31.99
44079;BME280;29744;49.078;12.878;2023-02-12T15:41:45;98292.13;;;15.58;31.56
44079;BME280;29744;49.078;12.878;2023-02-12T15:46:59;98298.03;;;15.60;31.65
44079;BME280;29744;49.078;12.878;2023-02-12T15:52:18;98285.28;;;15.66;31.77
44079;BME280;29744;49.078;12.878;2023-02-12T15:57:21;98292.81;;;15.69;31.40
44079;BME280;29744;49.078;12.878;2023-02-12T16:02:29;98299.28;;;15.73;31.78
44079;BME280;29744;49.078;12.878;2023-02-12T16:07:34;98294.09;;;15.76;31.62
44079;BME280;29744;49.078;12.878;2023-02-12T16:12:36;98293.56;;;15.80;31.62
44079;BME280;29744;49.078;12.878;2023-02-12T16:17:45;98299.19;;;15.83;31.48
44079;BME280;29744;49.078;12.878;2023-02-12T16:22:48;98302.13;;;15.87;31.86
44079;BME280;29744;49.078;12.878;2023-02-12T16:28:06;98311.06;;;15.87;31.45
44079;BME280;29744;49.078;12.878;2023-02-12T16:33:33;98313.47;;;15.89;31.45
44079;BME280;29744;49.078;12.878;2023-02-12T16:38:48;98310.19;;;15.92;31.57
44079;BME280;29744;49.078;12.878;2023-02-12T16:44:35;98319.34;;;15.96;31.54
44079;BME280;29744;49.078;12.878;2023-02-12T16:49:16;98326.09;;;15.98;31.42
44079;BME280;29744;49.078;12.878;2023-02-12T16:54:32;98322.28;;;15.99;31.21
44079;BME280;29744;49.078;12.878;2023-02-12T16:59:33;98321.72;;;16.02;31.36
44079;BME280;29744;49.078;12.878;2023-02-12T17:04:34;98328.44;;;16.05;31.15
44079;BME280;29744;49.078;12.878;2023-02-12T17:09:35;98337.38;;;16.05;31.60
44079;BME280;29744;49.078;12.878;2023-02-12T17:14:35;98331.38;;;16.08;31.42
44079;BME280;29744;49.078;12.878;2023-02-12T17:19:35;98336.50;;;16.10;31.63
44079;BME280;29744;49.078;12.878;2023-02-12T17:24:36;98347.88;;;16.12;31.60
44079;BME280;29744;49.078;12.878;2023-02-12T17:29:36;98344.06;;;16.13;31.11
44079;BME280;29744;49.078;12.878;2023-02-12T17:34:36;98343.78;;;16.15;31.35
44079;BME280;29744;49.078;12.878;2023-02-12T17:39:37;98347.81;;;16.17;31.52
44079;BME280;29744;49.078;12.878;2023-02-12T17:44:38;98350.50;;;16.17;31.26
44079;BME280;29744;49.078;12.878;2023-02-12T17:49:39;98346.41;;;16.20;31.40
44079;BME280;29744;49.078;12.878;2023-02-12T17:54:43;98349.66;;;16.22;31.40
44079;BME280;29744;49.078;12.878;2023-02-12T17:59:43;98358.56;;;16.22;31.34
44079;BME280;29744;49.078;12.878;2023-02-12T18:04:43;98358.81;;;16.26;31.21
44079;BME280;29744;49.078;12.878;2023-02-12T18:09:44;98356.09;;;16.26;31.51
44079;BME280;29744;49.078;12.878;2023-02-12T18:14:44;98356.09;;;16.26;31.19
44079;BME280;29744;49.078;12.878;2023-02-12T18:19:44;98352.28;;;16.27;31.38
44079;BME280;29744;49.078;12.878;2023-02-12T18:24:47;98351.50;;;16.26;31.38
44079;BME280;29744;49.078;12.878;2023-02-12T18:29:47;98356.09;;;16.26;31.23
44079;BME280;29744;49.078;12.878;2023-02-12T18:34:47;98356.38;;;16.24;31.29
44079;BME280;29744;49.078;12.878;2023-02-12T18:39:48;98352.34;;;16.22;31.51
44079;BME280;29744;49.078;12.878;2023-02-12T18:44:50;98348.31;;;16.19;31.01
44079;BME280;29744;49.078;12.878;2023-02-12T18:49:50;98355.94;;;16.17;31.37
44079;BME280;29744;49.078;12.878;2023-02-12T18:54:51;98349.19;;;16.15;31.14
44079;BME280;29744;49.078;12.878;2023-02-12T18:59:52;98341.63;;;16.12;31.42
44079;BME280;29744;49.078;12.878;2023-02-12T19:04:52;98336.81;;;16.08;31.50
44079;BME280;29744;49.078;12.878;2023-02-12T19:09:52;98343.59;;;16.06;31.02
44079;BME280;29744;49.078;12.878;2023-02-12T19:14:53;98335.25;;;16.02;31.25
44079;BME280;29744;49.078;12.878;2023-02-12T19:19:53;98339.63;;;15.98;31.43
44079;BME280;29744;49.078;12.878;2023-02-12T19:24:53;98347.22;;;15.96;31.55
44079;BME280;29744;49.078;12.878;2023-02-12T19:29:54;98355.91;;;15.93;31.32
44079;BME280;29744;49.078;12.878;2023-02-12T19:34:54;98357.81;;;15.93;31.43
44079;BME280;29744;49.078;12.878;2023-02-12T19:39:54;98359.19;;;15.90;31.36
44079;BME280;29744;49.078;12.878;2023-02-12T19:44:55;98360.28;;;15.89;31.66
44079;BME280;29744;49.078;12.878;2023-02-12T19:49:55;98360.28;;;15.89;31.44
44079;BME280;29744;49.078;12.878;2023-02-12T19:54:55;98370.00;;;15.90;31.73
44079;BME280;29744;49.078;12.878;2023-02-12T19:59:57;98364.31;;;15.92;31.70
44079;BME280;29744;49.078;12.878;2023-02-12T20:04:57;98364.84;;;15.94;31.52
44079;BME280;29744;49.078;12.878;2023-02-12T20:09:58;98365.63;;;15.94;31.46
44079;BME280;29744;49.078;12.878;2023-02-12T20:14:58;98375.88;;;15.97;31.47
44079;BME280;29744;49.078;12.878;2023-02-12T20:20:02;98372.91;;;15.99;31.76
44079;BME280;29744;49.078;12.878;2023-02-12T20:25:03;98378.03;;;16.00;31.19
44079;BME280;29744;49.078;12.878;2023-02-12T20:30:04;98385.56;;;16.03;31.64
44079;BME280;29744;49.078;12.878;2023-02-12T20:35:05;98386.91;;;16.06;31.69
44079;BME280;29744;49.078;12.878;2023-02-12T20:40:06;98388.22;;;16.08;31.42
44079;BME280;29744;49.078;12.878;2023-02-12T20:45:07;98396.06;;;16.10;31.59
44079;BME280;29744;49.078;12.878;2023-02-12T20:50:07;98390.34;;;16.12;31.22
44079;BME280;29744;49.078;12.878;2023-02-12T20:55:08;98400.63;;;16.15;31.44
44079;BME280;29744;49.078;12.878;2023-02-12T21:00:08;98391.91;;;16.18;31.45
44079;BME280;29744;49.078;12.878;2023-02-12T21:05:09;98389.72;;;16.20;31.46
44079;BME280;29744;49.078;12.878;2023-02-12T21:10:10;98387.84;;;16.20;31.53
44079;BME280;29744;49.078;12.878;2023-02-12T21:15:10;98386.44;;;16.23;31.61
44079;BME280;29744;49.078;12.878;2023-02-12T21:20:11;98380.22;;;16.22;31.00
44079;BME280;29744;49.078;12.878;2023-02-12T21:25:11;98380.22;;;16.22;31.40
44079;BME280;29744;49.078;12.878;2023-02-12T21:30:11;98383.75;;;16.23;31.11
44079;BME280;29744;49.078;12.878;2023-02-12T21:35:12;98373.19;;;16.21;31.32
44079;BME280;29744;49.078;12.878;2023-02-12T21:40:12;98370.78;;;16.20;31.09
44079;BME280;29744;49.078;12.878;2023-02-12T21:45:12;98368.38;;;16.18;31.38
44079;BME280;29744;49.078;12.878;2023-02-12T21:50:13;98363.25;;;16.17;31.61
44079;BME280;29744;49.078;12.878;2023-02-12T21:55:13;98363.00;;;16.13;31.04
44079;BME280;29744;49.078;12.878;2023-02-12T22:00:14;98357.06;;;16.11;31.44
44079;BME280;29744;49.078;12.878;2023-02-12T22:05:14;98363.06;;;16.08;31.71
44079;BME280;29744;49.078;12.878;2023-02-12T22:10:15;98360.94;;;16.05;31.40
44079;BME280;29744;49.078;12.878;2023-02-12T22:15:15;98357.19;;;16.01;31.65
44079;BME280;29744;49.078;12.878;2023-02-12T22:20:15;98365.59;;;15.99;31.15
44079;BME280;29744;49.078;12.878;2023-02-12T22:25:16;98361.84;;;15.95;31.45
44079;BME280;29744;49.078;12.878;2023-02-12T22:30:16;98360.81;;;15.91;31.14
44079;BME280;29744;49.078;12.878;2023-02-12T22:35:17;98362.47;;;15.87;31.67
44079;BME280;29744;49.078;12.878;2023-02-12T22:40:19;98363.84;;;15.85;31.46
44079;BME280;29744;49.078;12.878;2023-02-12T22:45:19;98360.91;;;15.81;31.17
44079;BME280;29744;49.078;12.878;2023-02-12T22:50:19;98374.16;;;15.77;31.44
44079;BME280;29744;49.078;12.878;2023-02-12T22:55:20;98372.31;;;15.73;31.36
44079;BME280;29744;49.078;12.878;2023-02-12T23:00:20;98370.97;;;15.70;31.78
44079;BME280;29744;49.078;12.878;2023-02-12T23:05:20;98371.84;;;15.66;31.59
44079;BME280;29744;49.078;12.878;2023-02-12T23:10:21;98377.81;;;15.63;31.61
44079;BME280;29744;49.078;12.878;2023-02-12T23:15:21;98372.16;;;15.59;31.60
44079;BME280;29744;49.078;12.878;2023-02-12T23:20:22;98371.09;;;15.55;31.60
44079;BME280;29744;49.078;12.878;2023-02-12T23:25:23;98368.16;;;15.52;31.47
44079;BME280;29744;49.078;12.878;2023-02-12T23:30:23;98361.72;;;15.48;31.38
44079;BME280;29744;49.078;12.878;2023-02-12T23:35:24;98355.25;;;15.43;31.83
44079;BME280;29744;49.078;12.878;2023-02-12T23:40:24;98357.72;;;15.40;31.78
44079;BME280;29744;49.078;12.878;2023-02-12T23:45:25;98356.66;;;15.36;32.04
44079;BME280;29744;49.078;12.878;2023-02-12T23:50:25;98361.81;;;15.32;31.63
44079;BME280;29744;49.078;12.878;2023-02-12T23:55:26;98357.78;;;15.30;31.61
